KMWL/MWL METAR and TAF weather

Enter ICAO airport designator
Station Type Date Time Source
KMWL METAR 2019/05/26 01:53 UTC NOAA

KMWL 260153Z AUTO 15007KT 10SM CLR 26/21 A2993 RMK AO2 SLP122 T02610206


Station Type Date Time Source
KMWL Decoded METAR 2019/05/26 01:53 UTC NOAA

MINERAL WELLS AIRPORT, TX, United States (KMWL) 32-47N 098-04W 284M
May 25, 2019 - 09:53 PM EDT / 2019.05.26 0153 UTC
Wind: from the SSE (150 degrees) at 8 MPH (7 KT):0
Visibility: 10 mile(s):0
Sky conditions: clear
Temperature: 79.0 F (26.1 C)
Dew Point: 69.1 F (20.6 C)
Relative Humidity: 71%
Pressure (altimeter): 29.93 in. Hg (1013 hPa)
ob: KMWL 260153Z AUTO 15007KT 10SM CLR 26/21 A2993 RMK AO2 SLP122 T02610206
cycle: 2

Station Type Date Time Source
KMWL TAF UTC NOAA

Error!

Example: see airport list